PWSweather.com
Personal Weather Stations
Station Observations
KNYSYRAC2
Fairmount Hills, Fairmount, NY 13219

Fairmount HillsFairmount, NY 13219

Lat: 43.03602, Lon: -76.247151

Elevation: 663

Station Type: Ambient Weather WS-2080

http://weather.cerchia.com

Latest ConditionsUpdated 5:15:00 PM EDT Thursday, Sep 21, 2017
Currently Today's Max Today's Min Today's Average
Temperature 79.4°F26.3°C 82.1°F27.8°C 59.4°F15.2°C 67.9°F19.9°C
Dew Point 64.8°F18.2°C 67.5°F19.7°C 59.4°F15.2°C 63.6°F17.6°C
Winds 1.7 mph N2.7 kmh N 3.4 mph NW5.5 kmh NW - 1.1 mph 1.8 kmh
Wind Gusts 4.8 mph7.7 kmh 10.3 mph16.6 kmh - -
Humidity 61% 100% 55% 88%
Pressure 30.05 in1017.6 mb 30.09 in1019.0 mb 30.01 in1016.3 mb -
Hour Temp Dew Point Humidity Winds Wind Gusts Pressure Precip Precip Rate Daily Precip Total
05:15 PM 79.4°F26.3°C 64.8°F18.2°C 61% 1.7 mph N2.7 kmh N 4.8 mph7.7 kmh 30.05 in1017.6 mb 0.00 in0.0 mm 0.00 in0.0 mm 0.00 in0.0 mm
05:00 PM 80.1°F26.7°C 64.0°F17.8°C 58% 3.0 mph N4.8 kmh N 8.7 mph14.0 kmh 30.04 in1017.3 mb 0.00 in0.0 mm 0.00 in0.0 mm 0.00 in0.0 mm
04:45 PM 81.6°F27.6°C 65.9°F18.8°C 59% 2.7 mph W4.3 kmh W 7.5 mph12.1 kmh 30.04 in1017.3 mb 0.00 in0.0 mm 0.00 in0.0 mm 0.00 in0.0 mm
04:30 PM 81.9°F27.7°C 65.2°F18.4°C 57% 3.2 mph SW5.1 kmh SW 8.7 mph14.0 kmh 30.05 in1017.6 mb 0.00 in0.0 mm 0.00 in0.0 mm 0.00 in0.0 mm
04:15 PM 82.1°F27.8°C 65.4°F18.6°C 57% 1.8 mph NW2.9 kmh NW 6.7 mph10.8 kmh 30.04 in1017.3 mb 0.00 in0.0 mm 0.00 in0.0 mm 0.00 in0.0 mm
04:00 PM 81.9°F27.7°C 65.2°F18.4°C 57% 1.9 mph WNW3.1 kmh WNW 4.8 mph7.7 kmh 30.03 in1016.9 mb 0.00 in0.0 mm 0.00 in0.0 mm 0.00 in0.0 mm
03:45 PM 81.8°F27.7°C 64.0°F17.8°C 55% 2.8 mph NE4.5 kmh NE 7.5 mph12.1 kmh 30.04 in1017.3 mb 0.00 in0.0 mm 0.00 in0.0 mm 0.00 in0.0 mm
03:30 PM 82.1°F27.8°C 65.4°F18.6°C 57% 1.6 mph W2.6 kmh W 5.6 mph9.0 kmh 30.05 in1017.6 mb 0.00 in0.0 mm 0.00 in0.0 mm 0.00 in0.0 mm
03:15 PM 81.8°F27.7°C 65.5°F18.6°C 58% 1.5 mph N2.4 kmh N 5.6 mph9.0 kmh 30.05 in1017.6 mb 0.00 in0.0 mm 0.00 in0.0 mm 0.00 in0.0 mm
03:00 PM 81.9°F27.7°C 65.7°F18.7°C 58% 2.8 mph WNW4.5 kmh WNW 6.7 mph10.8 kmh 30.06 in1017.9 mb 0.00 in0.0 mm 0.00 in0.0 mm 0.00 in0.0 mm
02:45 PM 80.9°F27.2°C 67.1°F19.5°C 63% 0.6 mph N1.0 kmh N 5.6 mph9.0 kmh 30.06 in1017.9 mb 0.00 in0.0 mm 0.00 in0.0 mm 0.00 in0.0 mm
02:30 PM 79.2°F26.2°C 66.0°F18.9°C 64% 1.7 mph NE2.7 kmh NE 6.7 mph10.8 kmh 30.06 in1017.9 mb 0.00 in0.0 mm 0.00 in0.0 mm 0.00 in0.0 mm
02:15 PM 78.0°F25.6°C 65.7°F18.7°C 66% 0.3 mph NE0.5 kmh NE 3.9 mph6.3 kmh 30.07 in1018.3 mb 0.00 in0.0 mm 0.00 in0.0 mm 0.00 in0.0 mm
02:00 PM 76.4°F24.7°C 67.5°F19.7°C 74% 3.4 mph NW5.5 kmh NW 7.5 mph12.1 kmh 30.07 in1018.3 mb 0.00 in0.0 mm 0.00 in0.0 mm 0.00 in0.0 mm
01:45 PM 74.7°F23.7°C 66.7°F19.3°C 76% 1.9 mph NE3.1 kmh NE 8.7 mph14.0 kmh 30.07 in1018.3 mb 0.00 in0.0 mm 0.00 in0.0 mm 0.00 in0.0 mm
01:30 PM 74.2°F23.4°C 66.1°F18.9°C 76% 3.1 mph NE5.0 kmh NE 10.3 mph16.6 kmh 30.08 in1018.6 mb 0.00 in0.0 mm 0.00 in0.0 mm 0.00 in0.0 mm
01:15 PM 73.8°F23.2°C 66.2°F19.0°C 77% 2.5 mph NNE4.0 kmh NNE 9.5 mph15.3 kmh 30.08 in1018.6 mb 0.00 in0.0 mm 0.00 in0.0 mm 0.00 in0.0 mm
01:00 PM 73.7°F23.2°C 66.4°F19.1°C 78% 3.1 mph N5.0 kmh N 10.3 mph16.6 kmh 30.08 in1018.6 mb 0.00 in0.0 mm 0.00 in0.0 mm 0.00 in0.0 mm
12:45 PM 73.3°F22.9°C 67.1°F19.5°C 81% 2.9 mph NW4.7 kmh NW 7.5 mph12.1 kmh 30.08 in1018.6 mb 0.00 in0.0 mm 0.00 in0.0 mm 0.00 in0.0 mm
12:30 PM 72.6°F22.6°C 66.4°F19.1°C 81% 2.6 mph NNW4.2 kmh NNW 7.5 mph12.1 kmh 30.08 in1018.6 mb 0.00 in0.0 mm 0.00 in0.0 mm 0.00 in0.0 mm
12:15 PM 71.9°F22.2°C 65.7°F18.7°C 81% 2.6 mph NW4.2 kmh NW 6.7 mph10.8 kmh 30.08 in1018.6 mb 0.00 in0.0 mm 0.00 in0.0 mm 0.00 in0.0 mm
12:00 PM 71.5°F21.9°C 66.4°F19.1°C 84% 2.3 mph NW3.7 kmh NW 5.6 mph9.0 kmh 30.08 in1018.6 mb 0.00 in0.0 mm 0.00 in0.0 mm 0.00 in0.0 mm
11:45 AM 70.8°F21.6°C 66.0°F18.9°C 85% 1.0 mph N1.6 kmh N 4.8 mph7.7 kmh 30.08 in1018.6 mb 0.00 in0.0 mm 0.00 in0.0 mm 0.00 in0.0 mm
11:30 AM 70.1°F21.2°C 66.0°F18.9°C 87% 1.5 mph N2.4 kmh N 5.6 mph9.0 kmh 30.08 in1018.6 mb 0.00 in0.0 mm 0.00 in0.0 mm 0.00 in0.0 mm
11:15 AM 69.7°F20.9°C 66.0°F18.9°C 88% 0.9 mph NNW1.4 kmh NNW 3.9 mph6.3 kmh 30.09 in1019.0 mb 0.00 in0.0 mm 0.00 in0.0 mm 0.00 in0.0 mm
11:00 AM 69.7°F20.9°C 66.6°F19.2°C 90% 2.0 mph WNW3.2 kmh WNW 5.6 mph9.0 kmh 30.08 in1018.6 mb 0.00 in0.0 mm 0.00 in0.0 mm 0.00 in0.0 mm
10:45 AM 69.2°F20.7°C 66.7°F19.3°C 92% 1.4 mph NW2.3 kmh NW 4.8 mph7.7 kmh 30.09 in1019.0 mb 0.00 in0.0 mm 0.00 in0.0 mm 0.00 in0.0 mm
10:30 AM 68.3°F20.2°C 67.1°F19.5°C 96% 1.2 mph W1.9 kmh W 4.8 mph7.7 kmh 30.09 in1019.0 mb 0.00 in0.0 mm 0.00 in0.0 mm 0.00 in0.0 mm
10:15 AM 67.5°F19.7°C 67.0°F19.4°C 98% 1.2 mph NW1.9 kmh NW 3.9 mph6.3 kmh 30.09 in1019.0 mb 0.00 in0.0 mm 0.00 in0.0 mm 0.00 in0.0 mm
10:00 AM 66.3°F19.1°C 66.3°F19.1°C 100% Calm Calm 0.8 mph1.3 kmh 30.09 in1019.0 mb 0.00 in0.0 mm 0.00 in0.0 mm 0.00 in0.0 mm
09:45 AM 65.2°F18.4°C 65.2°F18.4°C 100% 0.3 mph SW0.5 kmh SW 3.9 mph6.3 kmh 30.09 in1019.0 mb 0.00 in0.0 mm 0.00 in0.0 mm 0.00 in0.0 mm
09:30 AM 65.0°F18.3°C 65.0°F18.3°C 100% 0.1 mph S0.2 kmh S 2.0 mph3.2 kmh 30.08 in1018.6 mb 0.00 in0.0 mm 0.00 in0.0 mm 0.00 in0.0 mm
09:15 AM 64.7°F18.2°C 64.7°F18.2°C 100% 1.3 mph SW2.1 kmh SW 4.8 mph7.7 kmh 30.09 in1019.0 mb 0.00 in0.0 mm 0.00 in0.0 mm 0.00 in0.0 mm
09:00 AM 64.1°F17.8°C 64.1°F17.8°C 100% 1.7 mph WSW2.7 kmh WSW 4.8 mph7.7 kmh 30.08 in1018.6 mb 0.00 in0.0 mm 0.00 in0.0 mm 0.00 in0.0 mm
08:45 AM 63.6°F17.6°C 63.6°F17.6°C 100% 1.6 mph SW2.6 kmh SW 5.6 mph9.0 kmh 30.08 in1018.6 mb 0.00 in0.0 mm 0.00 in0.0 mm 0.00 in0.0 mm
08:30 AM 62.7°F17.1°C 62.7°F17.1°C 100% 0.1 mph W0.2 kmh W 2.8 mph4.5 kmh 30.08 in1018.6 mb 0.00 in0.0 mm 0.00 in0.0 mm 0.00 in0.0 mm
08:15 AM 62.5°F16.9°C 62.5°F16.9°C 100% 0.1 mph NNE0.2 kmh NNE 2.0 mph3.2 kmh 30.08 in1018.6 mb 0.00 in0.0 mm 0.00 in0.0 mm 0.00 in0.0 mm
08:00 AM 61.4°F16.3°C 61.4°F16.3°C 100% Calm Calm -- 30.08 in1018.6 mb 0.00 in0.0 mm 0.00 in0.0 mm 0.00 in0.0 mm
07:45 AM 61.4°F16.3°C 61.4°F16.3°C 100% Calm Calm 0.8 mph1.3 kmh 30.08 in1018.6 mb 0.00 in0.0 mm 0.00 in0.0 mm 0.00 in0.0 mm
07:30 AM 61.6°F16.4°C 61.6°F16.4°C 100% Calm Calm 0.8 mph1.3 kmh 30.08 in1018.6 mb 0.00 in0.0 mm 0.00 in0.0 mm 0.00 in0.0 mm
07:15 AM 62.5°F16.9°C 62.5°F16.9°C 100% Calm Calm 0.8 mph1.3 kmh 30.08 in1018.6 mb 0.00 in0.0 mm 0.00 in0.0 mm 0.00 in0.0 mm
07:00 AM 62.5°F16.9°C 62.5°F16.9°C 100% 0.6 mph SW1.0 kmh SW 4.8 mph7.7 kmh 30.08 in1018.6 mb 0.00 in0.0 mm 0.00 in0.0 mm 0.00 in0.0 mm
06:45 AM 62.5°F16.9°C 62.5°F16.9°C 100% 1.7 mph SW2.7 kmh SW 5.6 mph9.0 kmh 30.08 in1018.6 mb 0.00 in0.0 mm 0.00 in0.0 mm 0.00 in0.0 mm
06:30 AM 61.6°F16.4°C 61.6°F16.4°C 100% 1.5 mph WSW2.4 kmh WSW 5.6 mph9.0 kmh 30.08 in1018.6 mb 0.00 in0.0 mm 0.00 in0.0 mm 0.00 in0.0 mm
06:15 AM 61.2°F16.2°C 61.2°F16.2°C 100% 2.1 mph SW3.4 kmh SW 5.6 mph9.0 kmh 30.07 in1018.3 mb 0.00 in0.0 mm 0.00 in0.0 mm 0.00 in0.0 mm
06:00 AM 60.2°F15.7°C 60.2°F15.7°C 100% 1.6 mph WSW2.6 kmh WSW 3.9 mph6.3 kmh 30.07 in1018.3 mb 0.00 in0.0 mm 0.00 in0.0 mm 0.00 in0.0 mm
05:45 AM 59.8°F15.4°C 59.5°F15.3°C 99% 0.8 mph W1.3 kmh W 4.8 mph7.7 kmh 30.07 in1018.3 mb 0.00 in0.0 mm 0.00 in0.0 mm 0.00 in0.0 mm
05:30 AM 59.4°F15.2°C 59.4°F15.2°C 100% Calm Calm 0.8 mph1.3 kmh 30.07 in1018.3 mb 0.00 in0.0 mm 0.00 in0.0 mm 0.00 in0.0 mm
05:15 AM 59.8°F15.4°C 59.5°F15.3°C 99% Calm Calm -- 30.05 in1017.6 mb 0.00 in0.0 mm 0.00 in0.0 mm 0.00 in0.0 mm
05:00 AM 60.3°F15.7°C 60.1°F15.6°C 99% Calm Calm -- 30.04 in1017.3 mb 0.00 in0.0 mm 0.00 in0.0 mm 0.00 in0.0 mm
04:45 AM 60.9°F16.1°C 60.6°F15.9°C 99% Calm Calm -- 30.04 in1017.3 mb 0.00 in0.0 mm 0.00 in0.0 mm 0.00 in0.0 mm
04:30 AM 61.1°F16.2°C 61.1°F16.2°C 100% Calm Calm -- 30.04 in1017.3 mb 0.00 in0.0 mm 0.00 in0.0 mm 0.00 in0.0 mm
04:15 AM 61.8°F16.6°C 61.2°F16.2°C 98% Calm Calm 0.8 mph1.3 kmh 30.03 in1016.9 mb 0.00 in0.0 mm 0.00 in0.0 mm 0.00 in0.0 mm
04:00 AM 61.6°F16.4°C 61.0°F16.1°C 98% Calm Calm -- 30.03 in1016.9 mb 0.00 in0.0 mm 0.00 in0.0 mm 0.00 in0.0 mm
03:45 AM 61.2°F16.2°C 61.0°F16.1°C 99% 0.7 mph SW1.1 kmh SW 2.8 mph4.5 kmh 30.02 in1016.6 mb 0.00 in0.0 mm 0.00 in0.0 mm 0.00 in0.0 mm
03:30 AM 61.4°F16.3°C 61.1°F16.2°C 99% Calm Calm -- 30.02 in1016.6 mb 0.00 in0.0 mm 0.00 in0.0 mm 0.00 in0.0 mm
03:15 AM 61.4°F16.3°C 60.9°F16.1°C 98% 0.2 mph SE0.3 kmh SE 2.0 mph3.2 kmh 30.02 in1016.6 mb 0.00 in0.0 mm 0.00 in0.0 mm 0.00 in0.0 mm
03:00 AM 61.6°F16.4°C 60.7°F15.9°C 97% Calm Calm -- 30.02 in1016.6 mb 0.00 in0.0 mm 0.00 in0.0 mm 0.00 in0.0 mm
02:45 AM 61.8°F16.6°C 60.9°F16.1°C 97% Calm Calm -- 30.02 in1016.6 mb 0.00 in0.0 mm 0.00 in0.0 mm 0.00 in0.0 mm
02:30 AM 61.8°F16.6°C 60.9°F16.1°C 97% Calm Calm -- 30.02 in1016.6 mb 0.00 in0.0 mm 0.00 in0.0 mm 0.00 in0.0 mm
02:15 AM 61.8°F16.6°C 60.9°F16.1°C 97% Calm Calm -- 30.02 in1016.6 mb 0.00 in0.0 mm 0.00 in0.0 mm 0.00 in0.0 mm
02:00 AM 61.8°F16.6°C 60.9°F16.1°C 97% Calm Calm -- 30.01 in1016.3 mb 0.00 in0.0 mm 0.00 in0.0 mm 0.00 in0.0 mm
01:45 AM 62.9°F17.2°C 62.0°F16.7°C 97% Calm Calm -- 30.01 in1016.3 mb 0.00 in0.0 mm 0.00 in0.0 mm 0.00 in0.0 mm
01:30 AM 63.0°F17.2°C 62.2°F16.8°C 97% Calm Calm -- 30.01 in1016.3 mb 0.00 in0.0 mm 0.00 in0.0 mm 0.00 in0.0 mm
01:15 AM 63.0°F17.2°C 61.9°F16.6°C 96% Calm Calm -- 30.01 in1016.3 mb 0.00 in0.0 mm 0.00 in0.0 mm 0.00 in0.0 mm
01:00 AM 63.0°F17.2°C 61.9°F16.6°C 96% 0.1 mph SE0.2 kmh SE 2.0 mph3.2 kmh 30.01 in1016.3 mb 0.00 in0.0 mm 0.00 in0.0 mm 0.00 in0.0 mm
12:45 AM 63.6°F17.6°C 63.0°F17.2°C 98% Calm Calm 0.8 mph1.3 kmh 30.01 in1016.3 mb 0.00 in0.0 mm 0.00 in0.0 mm 0.00 in0.0 mm
12:30 AM 64.1°F17.8°C 63.3°F17.4°C 97% Calm Calm 0.8 mph1.3 kmh 30.01 in1016.3 mb 0.00 in0.0 mm 0.00 in0.0 mm 0.00 in0.0 mm
12:15 AM 64.7°F18.2°C 63.8°F17.7°C 97% 0.3 mph SW0.5 kmh SW 2.8 mph4.5 kmh 30.01 in1016.3 mb 0.00 in0.0 mm 0.00 in0.0 mm 0.00 in0.0 mm
12:00 AM 65.2°F18.4°C 64.0°F17.8°C 96% 0.1 mph SSW0.2 kmh SSW 2.0 mph3.2 kmh 30.01 in1016.3 mb 0.00 in0.0 mm 0.00 in0.0 mm 0.00 in0.0 mm